sensor_id;sensor_type;location;lat;lon;timestamp;pressure;altitude;pressure_sealevel;temperature;humidity
22653;BME280;11493;43.344;26.226;2023-02-17T00:01:31;100080.22;;;1.37;98.57
22653;BME280;11493;43.344;26.226;2023-02-17T00:03:59;100046.97;;;1.18;98.35
22653;BME280;11493;43.344;26.226;2023-02-17T00:06:28;100076.66;;;1.24;98.16
22653;BME280;11493;43.344;26.226;2023-02-17T00:08:55;100071.13;;;1.19;98.52
22653;BME280;11493;43.344;26.226;2023-02-17T00:11:24;100062.75;;;1.21;99.01
22653;BME280;11493;43.344;26.226;2023-02-17T00:13:51;100059.47;;;1.19;98.62
22653;BME280;11493;43.344;26.226;2023-02-17T00:16:23;100058.41;;;1.08;99.07
22653;BME280;11493;43.344;26.226;2023-02-17T00:18:58;100069.25;;;1.08;99.12
22653;BME280;11493;43.344;26.226;2023-02-17T00:21:31;100051.09;;;0.97;99.04
22653;BME280;11493;43.344;26.226;2023-02-17T00:23:58;100056.38;;;1.04;99.04
22653;BME280;11493;43.344;26.226;2023-02-17T00:26:26;100052.97;;;0.96;99.17
22653;BME280;11493;43.344;26.226;2023-02-17T00:28:53;100048.47;;;0.90;99.15
22653;BME280;11493;43.344;26.226;2023-02-17T00:31:21;100047.53;;;0.96;99.42
22653;BME280;11493;43.344;26.226;2023-02-17T00:33:53;100049.44;;;0.96;99.24
22653;BME280;11493;43.344;26.226;2023-02-17T00:36:20;100050.84;;;0.98;99.11
22653;BME280;11493;43.344;26.226;2023-02-17T00:38:48;100047.19;;;0.93;99.01
22653;BME280;11493;43.344;26.226;2023-02-17T00:41:18;100036.94;;;0.83;98.83
22653;BME280;11493;43.344;26.226;2023-02-17T00:43:46;100046.00;;;0.77;98.96
22653;BME280;11493;43.344;26.226;2023-02-17T00:46:15;100041.63;;;0.76;99.36
22653;BME280;11493;43.344;26.226;2023-02-17T00:48:44;100031.16;;;0.68;99.41
22653;BME280;11493;43.344;26.226;2023-02-17T00:51:11;100023.97;;;0.62;99.51
22653;BME280;11493;43.344;26.226;2023-02-17T00:53:38;100023.16;;;0.61;99.77
22653;BME280;11493;43.344;26.226;2023-02-17T00:56:05;100034.09;;;0.67;100.00
22653;BME280;11493;43.344;26.226;2023-02-17T00:58:34;100020.91;;;0.58;99.88
22653;BME280;11493;43.344;26.226;2023-02-17T01:01:01;100019.25;;;0.57;99.95
22653;BME280;11493;43.344;26.226;2023-02-17T01:03:29;100018.19;;;0.58;100.00
22653;BME280;11493;43.344;26.226;2023-02-17T01:05:57;100006.06;;;0.49;99.81
22653;BME280;11493;43.344;26.226;2023-02-17T01:08:24;100016.50;;;0.46;99.88
22653;BME280;11493;43.344;26.226;2023-02-17T01:10:52;100008.72;;;0.38;98.93
22653;BME280;11493;43.344;26.226;2023-02-17T01:13:20;100010.00;;;0.35;99.21
22653;BME280;11493;43.344;26.226;2023-02-17T01:15:50;99992.47;;;0.38;98.90
22653;BME280;11493;43.344;26.226;2023-02-17T01:18:22;100004.13;;;0.38;98.90
22653;BME280;11493;43.344;26.226;2023-02-17T01:20:50;99995.75;;;0.28;99.68
22653;BME280;11493;43.344;26.226;2023-02-17T01:23:17;99986.91;;;0.21;100.00
22653;BME280;11493;43.344;26.226;2023-02-17T01:25:45;99987.28;;;0.24;100.00
22653;BME280;11493;43.344;26.226;2023-02-17T01:28:18;99979.84;;;0.20;100.00
22653;BME280;11493;43.344;26.226;2023-02-17T01:30:45;99970.75;;;0.14;100.00
22653;BME280;11493;43.344;26.226;2023-02-17T01:33:13;99991.84;;;0.24;100.00
22653;BME280;11493;43.344;26.226;2023-02-17T01:35:40;99985.63;;;0.23;100.00
22653;BME280;11493;43.344;26.226;2023-02-17T01:38:07;99980.44;;;0.22;100.00
22653;BME280;11493;43.344;26.226;2023-02-17T01:40:34;99974.91;;;0.17;100.00
22653;BME280;11493;43.344;26.226;2023-02-17T01:43:00;99985.38;;;0.25;100.00
22653;BME280;11493;43.344;26.226;2023-02-17T01:45:35;99993.50;;;0.25;100.00
22653;BME280;11493;43.344;26.226;2023-02-17T01:48:11;99984.56;;;0.24;100.00
22653;BME280;11493;43.344;26.226;2023-02-17T01:50:47;99982.59;;;0.31;100.00
22653;BME280;11493;43.344;26.226;2023-02-17T01:53:19;99988.13;;;0.37;100.00
22653;BME280;11493;43.344;26.226;2023-02-17T01:55:48;99976.81;;;0.28;100.00
22653;BME280;11493;43.344;26.226;2023-02-17T01:58:17;99983.50;;;0.25;100.00
22653;BME280;11493;43.344;26.226;2023-02-17T02:00:47;99971.38;;;0.16;100.00
22653;BME280;11493;43.344;26.226;2023-02-17T02:03:18;99980.66;;;0.20;100.00
22653;BME280;11493;43.344;26.226;2023-02-17T02:05:45;99978.19;;;0.19;100.00
22653;BME280;11493;43.344;26.226;2023-02-17T02:08:13;99968.41;;;0.18;100.00
22653;BME280;11493;43.344;26.226;2023-02-17T02:10:40;99969.94;;;0.14;100.00
22653;BME280;11493;43.344;26.226;2023-02-17T02:13:07;99974.53;;;0.13;100.00
22653;BME280;11493;43.344;26.226;2023-02-17T02:23:53;99969.06;;;0.02;100.00
22653;BME280;11493;43.344;26.226;2023-02-17T02:29:38;99971.16;;;-0.12;100.00
22653;BME280;11493;43.344;26.226;2023-02-17T02:32:35;99972.09;;;-0.18;100.00
22653;BME280;11493;43.344;26.226;2023-02-17T02:35:30;99968.09;;;-0.16;100.00
22653;BME280;11493;43.344;26.226;2023-02-17T02:38:28;99955.34;;;-0.27;100.00
22653;BME280;11493;43.344;26.226;2023-02-17T02:41:01;99946.50;;;-0.34;100.00
22653;BME280;11493;43.344;26.226;2023-02-17T02:43:31;99951.81;;;-0.27;100.00
22653;BME280;11493;43.344;26.226;2023-02-17T02:45:58;99960.75;;;-0.27;100.00
22653;BME280;11493;43.344;26.226;2023-02-17T02:48:25;99953.34;;;-0.31;100.00
22653;BME280;11493;43.344;26.226;2023-02-17T02:54:01;99954.16;;;-0.31;100.00
22653;BME280;11493;43.344;26.226;2023-02-17T02:56:48;99953.09;;;-0.30;100.00
22653;BME280;11493;43.344;26.226;2023-02-17T02:59:39;99954.75;;;-0.29;100.00
22653;BME280;11493;43.344;26.226;2023-02-17T03:02:25;99952.38;;;-0.37;100.00
22653;BME280;11493;43.344;26.226;2023-02-17T03:08:14;99952.38;;;-0.37;100.00
22653;BME280;11493;43.344;26.226;2023-02-17T03:10:31;99958.59;;;-0.37;100.00
22653;BME280;11493;43.344;26.226;2023-02-17T03:13:00;99960.72;;;-0.39;100.00
22653;BME280;11493;43.344;26.226;2023-02-17T03:15:31;99966.03;;;-0.32;100.00
22653;BME280;11493;43.344;26.226;2023-02-17T03:18:01;99970.84;;;-0.34;100.00
22653;BME280;11493;43.344;26.226;2023-02-17T03:20:31;99958.81;;;-0.38;100.00
22653;BME280;11493;43.344;26.226;2023-02-17T03:23:01;99942.91;;;-0.46;100.00
22653;BME280;11493;43.344;26.226;2023-02-17T03:25:29;99959.78;;;-0.32;100.00
22653;BME280;11493;43.344;26.226;2023-02-17T03:27:56;99970.97;;;-0.29;100.00
22653;BME280;11493;43.344;26.226;2023-02-17T03:30:23;99966.75;;;-0.25;100.00
22653;BME280;11493;43.344;26.226;2023-02-17T03:32:50;99969.63;;;-0.20;100.00
22653;BME280;11493;43.344;26.226;2023-02-17T03:35:17;99961.34;;;-0.25;100.00
22653;BME280;11493;43.344;26.226;2023-02-17T03:37:46;99977.28;;;-0.17;100.00
22653;BME280;11493;43.344;26.226;2023-02-17T03:40:13;99973.81;;;-0.24;100.00
22653;BME280;11493;43.344;26.226;2023-02-17T03:42:40;99974.28;;;-0.27;100.00
22653;BME280;11493;43.344;26.226;2023-02-17T03:45:07;99979.22;;;-0.24;100.00
22653;BME280;11493;43.344;26.226;2023-02-17T03:47:35;99974.56;;;-0.17;100.00
22653;BME280;11493;43.344;26.226;2023-02-17T03:50:02;99971.16;;;-0.12;100.00
22653;BME280;11493;43.344;26.226;2023-02-17T03:52:29;99985.56;;;0.00;100.00
22653;BME280;11493;43.344;26.226;2023-02-17T03:54:56;99990.63;;;-0.04;100.00
22653;BME280;11493;43.344;26.226;2023-02-17T03:57:23;99984.00;;;-0.08;100.00
22653;BME280;11493;43.344;26.226;2023-02-17T03:59:49;99989.34;;;-0.01;100.00
22653;BME280;11493;43.344;26.226;2023-02-17T04:02:16;99989.66;;;0.03;100.00
22653;BME280;11493;43.344;26.226;2023-02-17T04:04:43;99977.31;;;-0.05;100.00
22653;BME280;11493;43.344;26.226;2023-02-17T04:07:10;99991.22;;;0.10;100.00
22653;BME280;11493;43.344;26.226;2023-02-17T04:09:37;99983.13;;;0.22;100.00
22653;BME280;11493;43.344;26.226;2023-02-17T04:12:04;99979.75;;;0.26;100.00
22653;BME280;11493;43.344;26.226;2023-02-17T04:14:31;99983.53;;;0.37;100.00
22653;BME280;11493;43.344;26.226;2023-02-17T04:16:58;99991.00;;;0.53;100.00
22653;BME280;11493;43.344;26.226;2023-02-17T04:19:25;99995.00;;;0.62;100.00
22653;BME280;11493;43.344;26.226;2023-02-17T04:21:52;99977.69;;;0.52;100.00
22653;BME280;11493;43.344;26.226;2023-02-17T04:24:18;99991.81;;;0.65;100.00
22653;BME280;11493;43.344;26.226;2023-02-17T04:26:45;99987.25;;;0.66;99.89
22653;BME280;11493;43.344;26.226;2023-02-17T04:29:12;99978.50;;;0.52;99.92
22653;BME280;11493;43.344;26.226;2023-02-17T04:31:39;99987.59;;;0.70;99.76
22653;BME280;11493;43.344;26.226;2023-02-17T04:34:06;99981.22;;;0.76;99.30
22653;BME280;11493;43.344;26.226;2023-02-17T04:36:34;99983.44;;;0.79;98.72
22653;BME280;11493;43.344;26.226;2023-02-17T04:39:00;99992.53;;;0.73;98.69
22653;BME280;11493;43.344;26.226;2023-02-17T04:41:27;99977.69;;;0.63;98.88
22653;BME280;11493;43.344;26.226;2023-02-17T04:43:54;99987.84;;;0.68;99.44
22653;BME280;11493;43.344;26.226;2023-02-17T04:46:21;99979.25;;;0.71;99.49
22653;BME280;11493;43.344;26.226;2023-02-17T04:48:48;99980.88;;;0.84;99.05
22653;BME280;11493;43.344;26.226;2023-02-17T04:51:15;99988.63;;;0.80;98.33
22653;BME280;11493;43.344;26.226;2023-02-17T04:53:42;99990.16;;;0.76;98.24
22653;BME280;11493;43.344;26.226;2023-02-17T04:56:09;100002.06;;;0.75;98.40
22653;BME280;11493;43.344;26.226;2023-02-17T04:58:36;99984.41;;;0.61;98.67
22653;BME280;11493;43.344;26.226;2023-02-17T05:01:03;100005.25;;;0.72;98.73
22653;BME280;11493;43.344;26.226;2023-02-17T05:03:30;100009.25;;;0.70;98.61
22653;BME280;11493;43.344;26.226;2023-02-17T05:05:57;99999.50;;;0.69;98.90
22653;BME280;11493;43.344;26.226;2023-02-17T05:08:24;100009.63;;;0.73;98.97
22653;BME280;11493;43.344;26.226;2023-02-17T05:10:51;100007.63;;;0.69;98.90
22653;BME280;11493;43.344;26.226;2023-02-17T05:13:18;100001.47;;;0.61;98.98
22653;BME280;11493;43.344;26.226;2023-02-17T05:15:46;100006.44;;;0.64;99.20
22653;BME280;11493;43.344;26.226;2023-02-17T05:18:13;99998.28;;;0.53;99.09
22653;BME280;11493;43.344;26.226;2023-02-17T05:20:40;100010.31;;;0.57;99.05
22653;BME280;11493;43.344;26.226;2023-02-17T05:23:07;100014.56;;;0.64;98.95
22653;BME280;11493;43.344;26.226;2023-02-17T05:25:34;100022.09;;;0.62;98.68
22653;BME280;11493;43.344;26.226;2023-02-17T05:28:01;100021.38;;;0.55;98.91
22653;BME280;11493;43.344;26.226;2023-02-17T05:30:28;99998.84;;;0.43;99.06
22653;BME280;11493;43.344;26.226;2023-02-17T05:32:55;100015.91;;;0.44;99.48
22653;BME280;11493;43.344;26.226;2023-02-17T05:35:23;100019.72;;;0.54;99.16
22653;BME280;11493;43.344;26.226;2023-02-17T05:37:50;100025.81;;;0.50;99.20
22653;BME280;11493;43.344;26.226;2023-02-17T05:40:17;100026.19;;;0.53;99.50
22653;BME280;11493;43.344;26.226;2023-02-17T05:42:44;100025.13;;;0.54;99.67
22653;BME280;11493;43.344;26.226;2023-02-17T05:45:11;100026.78;;;0.55;99.84
22653;BME280;11493;43.344;26.226;2023-02-17T05:47:38;100016.19;;;0.54;99.75
22653;BME280;11493;43.344;26.226;2023-02-17T05:50:05;100042.09;;;0.61;99.54
22653;BME280;11493;43.344;26.226;2023-02-17T05:52:32;100025.13;;;0.54;100.00
22653;BME280;11493;43.344;26.226;2023-02-17T05:54:59;100040.22;;;0.62;99.83
22653;BME280;11493;43.344;26.226;2023-02-17T05:57:26;100040.94;;;0.69;99.97
22653;BME280;11493;43.344;26.226;2023-02-17T05:59:53;100036.09;;;0.59;99.46
22653;BME280;11493;43.344;26.226;2023-02-17T06:02:20;100055.31;;;0.70;99.69
22653;BME280;11493;43.344;26.226;2023-02-17T06:04:47;100046.00;;;0.65;99.45
22653;BME280;11493;43.344;26.226;2023-02-17T06:07:14;100063.44;;;0.81;99.58
22653;BME280;11493;43.344;26.226;2023-02-17T06:09:41;100047.53;;;0.85;99.29
22653;BME280;11493;43.344;26.226;2023-02-17T06:12:08;100053.91;;;1.02;99.55
22653;BME280;11493;43.344;26.226;2023-02-17T06:14:35;100061.47;;;1.23;99.51
22653;BME280;11493;43.344;26.226;2023-02-17T06:17:02;100061.59;;;1.40;99.28
22653;BME280;11493;43.344;26.226;2023-02-17T06:19:30;100062.13;;;1.65;98.87
22653;BME280;11493;43.344;26.226;2023-02-17T06:21:56;100057.94;;;1.86;98.59
22653;BME280;11493;43.344;26.226;2023-02-17T06:24:23;100064.50;;;2.02;96.78
22653;BME280;11493;43.344;26.226;2023-02-17T06:26:51;100067.56;;;2.06;95.97
22653;BME280;11493;43.344;26.226;2023-02-17T06:29:18;100070.66;;;2.26;95.64
22653;BME280;11493;43.344;26.226;2023-02-17T06:31:48;100060.38;;;2.28;95.45
22653;BME280;11493;43.344;26.226;2023-02-17T06:34:15;100051.94;;;2.41;95.63
22653;BME280;11493;43.344;26.226;2023-02-17T06:36:42;100051.72;;;2.59;95.38
22653;BME280;11493;43.344;26.226;2023-02-17T06:39:09;100051.50;;;2.78;95.21
22653;BME280;11493;43.344;26.226;2023-02-17T06:41:36;100051.97;;;3.08;94.77
22653;BME280;11493;43.344;26.226;2023-02-17T06:44:03;100052.72;;;3.20;94.36
22653;BME280;11493;43.344;26.226;2023-02-17T06:46:30;100057.56;;;3.35;92.46
22653;BME280;11493;43.344;26.226;2023-02-17T06:48:57;100058.84;;;3.49;91.73
22653;BME280;11493;43.344;26.226;2023-02-17T06:51:26;100054.53;;;3.70;91.34
22653;BME280;11493;43.344;26.226;2023-02-17T06:53:53;100053.63;;;3.86;90.77
22653;BME280;11493;43.344;26.226;2023-02-17T06:56:21;100051.28;;;3.95;90.26
22653;BME280;11493;43.344;26.226;2023-02-17T06:58:48;100058.63;;;4.16;89.51
22653;BME280;11493;43.344;26.226;2023-02-17T07:01:16;100062.28;;;4.27;89.41
22653;BME280;11493;43.344;26.226;2023-02-17T07:03:44;100058.53;;;4.33;89.19
22653;BME280;11493;43.344;26.226;2023-02-17T07:06:11;100071.06;;;4.61;88.73
22653;BME280;11493;43.344;26.226;2023-02-17T07:08:38;100065.00;;;4.81;88.25
22653;BME280;11493;43.344;26.226;2023-02-17T07:11:10;100059.41;;;4.98;87.78
22653;BME280;11493;43.344;26.226;2023-02-17T07:13:37;100067.00;;;5.27;86.66
22653;BME280;11493;43.344;26.226;2023-02-17T07:16:04;100060.88;;;5.52;85.87
22653;BME280;11493;43.344;26.226;2023-02-17T07:18:32;100061.31;;;5.81;84.17
22653;BME280;11493;43.344;26.226;2023-02-17T07:20:59;100066.41;;;6.20;82.18
22653;BME280;11493;43.344;26.226;2023-02-17T07:23:26;100062.09;;;6.34;81.23
22653;BME280;11493;43.344;26.226;2023-02-17T07:25:53;100067.63;;;6.59;80.30
22653;BME280;11493;43.344;26.226;2023-02-17T07:28:20;100054.78;;;6.75;78.67
22653;BME280;11493;43.344;26.226;2023-02-17T07:30:47;100059.72;;;6.99;78.65
22653;BME280;11493;43.344;26.226;2023-02-17T07:33:14;100053.41;;;7.23;76.82
22653;BME280;11493;43.344;26.226;2023-02-17T07:35:41;100061.91;;;7.37;76.17
22653;BME280;11493;43.344;26.226;2023-02-17T07:38:12;100049.81;;;7.48;75.43
22653;BME280;11493;43.344;26.226;2023-02-17T07:40:39;100048.69;;;7.59;75.21
22653;BME280;11493;43.344;26.226;2023-02-17T07:43:05;100042.41;;;7.54;73.42
22653;BME280;11493;43.344;26.226;2023-02-17T07:45:33;100059.56;;;7.90;73.12
22653;BME280;11493;43.344;26.226;2023-02-17T07:48:00;100060.09;;;7.92;73.20
22653;BME280;11493;43.344;26.226;2023-02-17T07:50:27;100068.06;;;7.88;73.59
22653;BME280;11493;43.344;26.226;2023-02-17T07:52:54;100054.09;;;7.85;72.92
22653;BME280;11493;43.344;26.226;2023-02-17T07:55:21;100064.22;;;7.95;73.07
22653;BME280;11493;43.344;26.226;2023-02-17T07:57:48;100057.63;;;7.96;73.25
22653;BME280;11493;43.344;26.226;2023-02-17T08:00:15;100056.47;;;8.12;72.01
22653;BME280;11493;43.344;26.226;2023-02-17T08:02:43;100064.66;;;8.17;72.26
22653;BME280;11493;43.344;26.226;2023-02-17T08:05:10;100066.34;;;8.13;72.24
22653;BME280;11493;43.344;26.226;2023-02-17T08:07:37;100073.63;;;8.28;72.47
22653;BME280;11493;43.344;26.226;2023-02-17T08:10:04;100092.28;;;8.31;72.41
22653;BME280;11493;43.344;26.226;2023-02-17T08:12:50;100091.94;;;8.47;71.91
22653;BME280;11493;43.344;26.226;2023-02-17T08:15:36;100092.47;;;8.54;71.28
22653;BME280;11493;43.344;26.226;2023-02-17T08:18:03;100082.00;;;8.62;71.35
22653;BME280;11493;43.344;26.226;2023-02-17T08:20:32;100086.81;;;8.80;71.17
22653;BME280;11493;43.344;26.226;2023-02-17T08:23:00;100089.03;;;8.78;71.65
22653;BME280;11493;43.344;26.226;2023-02-17T08:25:34;100093.25;;;8.99;70.52
22653;BME280;11493;43.344;26.226;2023-02-17T08:28:02;100104.44;;;9.08;69.39
22653;BME280;11493;43.344;26.226;2023-02-17T08:30:30;100102.72;;;9.17;70.21
22653;BME280;11493;43.344;26.226;2023-02-17T08:32:58;100093.09;;;9.19;68.34
22653;BME280;11493;43.344;26.226;2023-02-17T08:35:25;100086.59;;;9.10;68.70
22653;BME280;11493;43.344;26.226;2023-02-17T08:37:54;100083.38;;;9.32;68.35
22653;BME280;11493;43.344;26.226;2023-02-17T08:40:21;100080.94;;;9.31;66.86
22653;BME280;11493;43.344;26.226;2023-02-17T08:42:48;100085.81;;;9.39;66.40
22653;BME280;11493;43.344;26.226;2023-02-17T08:45:15;100081.19;;;9.34;66.99
22653;BME280;11493;43.344;26.226;2023-02-17T08:47:42;100088.88;;;9.32;66.57
22653;BME280;11493;43.344;26.226;2023-02-17T08:50:12;100080.34;;;9.34;65.85
22653;BME280;11493;43.344;26.226;2023-02-17T08:52:41;100093.94;;;9.49;65.82
22653;BME280;11493;43.344;26.226;2023-02-17T08:55:08;100083.44;;;9.56;65.69
22653;BME280;11493;43.344;26.226;2023-02-17T08:57:36;100082.69;;;9.50;64.89
22653;BME280;11493;43.344;26.226;2023-02-17T09:00:06;100088.16;;;9.50;65.63
22653;BME280;11493;43.344;26.226;2023-02-17T09:02:34;100082.97;;;9.49;65.73
22653;BME280;11493;43.344;26.226;2023-02-17T09:05:04;100074.09;;;9.57;65.38
22653;BME280;11493;43.344;26.226;2023-02-17T09:07:31;100083.84;;;9.68;65.14
22653;BME280;11493;43.344;26.226;2023-02-17T09:09:59;100083.94;;;9.63;64.39
22653;BME280;11493;43.344;26.226;2023-02-17T09:12:26;100066.50;;;9.73;65.15
22653;BME280;11493;43.344;26.226;2023-02-17T09:14:53;100062.91;;;9.72;64.87
22653;BME280;11493;43.344;26.226;2023-02-17T09:17:20;100066.53;;;9.68;65.09
22653;BME280;11493;43.344;26.226;2023-02-17T09:19:47;100074.50;;;9.69;63.74
22653;BME280;11493;43.344;26.226;2023-02-17T09:22:14;100080.66;;;9.85;63.43
22653;BME280;11493;43.344;26.226;2023-02-17T09:24:57;100065.97;;;9.95;63.56
22653;BME280;11493;43.344;26.226;2023-02-17T09:27:24;100083.00;;;9.97;63.27
22653;BME280;11493;43.344;26.226;2023-02-17T09:29:51;100085.09;;;10.05;63.15
22653;BME280;11493;43.344;26.226;2023-02-17T09:32:18;100089.38;;;10.16;63.18
22653;BME280;11493;43.344;26.226;2023-02-17T09:34:46;100078.56;;;10.25;62.30
22653;BME280;11493;43.344;26.226;2023-02-17T09:37:20;100092.56;;;10.47;61.72
22653;BME280;11493;43.344;26.226;2023-02-17T09:39:47;100071.25;;;10.39;62.66
22653;BME280;11493;43.344;26.226;2023-02-17T09:42:23;100082.16;;;10.44;61.65
22653;BME280;11493;43.344;26.226;2023-02-17T09:45:15;100065.00;;;10.33;61.09
22653;BME280;11493;43.344;26.226;2023-02-17T09:47:48;100066.47;;;10.44;61.86
22653;BME280;11493;43.344;26.226;2023-02-17T09:50:20;100065.97;;;10.61;62.73
22653;BME280;11493;43.344;26.226;2023-02-17T09:56:00;100052.41;;;10.83;61.61
22653;BME280;11493;43.344;26.226;2023-02-17T10:00:57;100066.31;;;10.92;60.80
22653;BME280;11493;43.344;26.226;2023-02-17T10:03:35;100063.28;;;10.94;60.68
22653;BME280;11493;43.344;26.226;2023-02-17T10:06:11;100072.13;;;11.23;59.25
22653;BME280;11493;43.344;26.226;2023-02-17T10:11:41;100058.44;;;11.18;60.69
22653;BME280;11493;43.344;26.226;2023-02-17T10:14:29;100051.03;;;11.32;59.78
22653;BME280;11493;43.344;26.226;2023-02-17T10:17:14;100059.44;;;11.41;58.13
22653;BME280;11493;43.344;26.226;2023-02-17T10:19:52;100043.72;;;11.41;57.99
22653;BME280;11493;43.344;26.226;2023-02-17T10:22:22;100043.25;;;11.53;57.08
22653;BME280;11493;43.344;26.226;2023-02-17T10:24:50;100026.00;;;11.61;57.28
22653;BME280;11493;43.344;26.226;2023-02-17T10:30:17;100030.59;;;11.66;56.86
22653;BME280;11493;43.344;26.226;2023-02-17T10:33:11;100033.63;;;11.83;56.30
22653;BME280;11493;43.344;26.226;2023-02-17T10:35:52;100031.75;;;11.92;57.02
22653;BME280;11493;43.344;26.226;2023-02-17T10:41:35;100000.50;;;11.97;56.82
22653;BME280;11493;43.344;26.226;2023-02-17T10:44:12;100023.84;;;12.27;55.95
22653;BME280;11493;43.344;26.226;2023-02-17T10:46:41;100017.41;;;12.31;54.59
22653;BME280;11493;43.344;26.226;2023-02-17T10:49:29;100002.91;;;12.26;54.07
22653;BME280;11493;43.344;26.226;2023-02-17T10:52:02;100007.63;;;12.25;52.74
22653;BME280;11493;43.344;26.226;2023-02-17T10:54:36;100014.44;;;12.41;54.40
22653;BME280;11493;43.344;26.226;2023-02-17T10:57:07;100000.13;;;12.39;54.80
22653;BME280;11493;43.344;26.226;2023-02-17T10:59:42;99992.75;;;12.48;55.48
22653;BME280;11493;43.344;26.226;2023-02-17T11:02:27;99993.88;;;12.47;54.55
22653;BME280;11493;43.344;26.226;2023-02-17T11:04:59;99973.31;;;12.54;53.64
22653;BME280;11493;43.344;26.226;2023-02-17T11:07:32;99978.44;;;12.46;54.03
22653;BME280;11493;43.344;26.226;2023-02-17T11:10:02;99965.88;;;12.40;54.02
22653;BME280;11493;43.344;26.226;2023-02-17T11:12:39;99976.00;;;12.45;53.27
22653;BME280;11493;43.344;26.226;2023-02-17T11:15:18;99974.75;;;12.51;53.62
22653;BME280;11493;43.344;26.226;2023-02-17T11:17:46;99978.75;;;12.67;53.25
22653;BME280;11493;43.344;26.226;2023-02-17T11:22:42;99982.78;;;12.61;54.32
22653;BME280;11493;43.344;26.226;2023-02-17T11:25:24;99976.44;;;12.83;52.78
22653;BME280;11493;43.344;26.226;2023-02-17T11:27:54;99969.09;;;13.01;52.81
22653;BME280;11493;43.344;26.226;2023-02-17T11:30:23;99976.59;;;13.09;50.67
22653;BME280;11493;43.344;26.226;2023-02-17T11:32:50;99968.28;;;13.23;51.11
22653;BME280;11493;43.344;26.226;2023-02-17T11:35:27;99964.31;;;13.46;51.00
22653;BME280;11493;43.344;26.226;2023-02-17T11:38:08;99956.72;;;13.60;51.13
22653;BME280;11493;43.344;26.226;2023-02-17T11:40:36;99966.47;;;13.58;51.14
22653;BME280;11493;43.344;26.226;2023-02-17T11:43:04;99966.06;;;13.33;49.84
22653;BME280;11493;43.344;26.226;2023-02-17T11:45:39;99973.81;;;13.23;49.71
22653;BME280;11493;43.344;26.226;2023-02-17T11:48:36;99962.66;;;13.36;49.72
22653;BME280;11493;43.344;26.226;2023-02-17T11:54:14;99967.25;;;13.49;48.73
22653;BME280;11493;43.344;26.226;2023-02-17T12:03:02;99964.28;;;13.86;48.57
22653;BME280;11493;43.344;26.226;2023-02-17T12:14:33;99963.25;;;13.64;49.31
22653;BME280;11493;43.344;26.226;2023-02-17T12:17:34;99960.63;;;13.59;50.05
22653;BME280;11493;43.344;26.226;2023-02-17T12:20:23;99954.69;;;13.35;50.61
22653;BME280;11493;43.344;26.226;2023-02-17T12:23:05;99965.34;;;13.59;50.19
22653;BME280;11493;43.344;26.226;2023-02-17T12:25:45;99939.72;;;13.36;50.91
22653;BME280;11493;43.344;26.226;2023-02-17T12:34:16;99954.19;;;13.10;53.78
22653;BME280;11493;43.344;26.226;2023-02-17T12:36:47;99943.44;;;13.31;54.41
22653;BME280;11493;43.344;26.226;2023-02-17T12:39:40;99951.19;;;13.60;52.48
22653;BME280;11493;43.344;26.226;2023-02-17T12:45:02;99937.50;;;13.55;50.71
22653;BME280;11493;43.344;26.226;2023-02-17T12:50:59;99951.56;;;13.76;50.46
22653;BME280;11493;43.344;26.226;2023-02-17T12:58:56;99946.34;;;13.74;47.67
22653;BME280;11493;43.344;26.226;2023-02-17T13:01:28;99913.34;;;13.78;46.34
22653;BME280;11493;43.344;26.226;2023-02-17T13:04:01;99942.69;;;14.13;47.25
22653;BME280;11493;43.344;26.226;2023-02-17T13:08:57;99950.31;;;13.91;45.26
22653;BME280;11493;43.344;26.226;2023-02-17T13:11:32;99965.50;;;14.10;45.11
22653;BME280;11493;43.344;26.226;2023-02-17T13:14:27;99951.00;;;14.22;44.56
22653;BME280;11493;43.344;26.226;2023-02-17T13:16:54;99947.91;;;14.32;45.42
22653;BME280;11493;43.344;26.226;2023-02-17T13:19:30;99948.88;;;14.28;46.06
22653;BME280;11493;43.344;26.226;2023-02-17T13:21:58;99957.34;;;14.14;46.35
22653;BME280;11493;43.344;26.226;2023-02-17T13:24:38;99960.78;;;14.11;46.23
22653;BME280;11493;43.344;26.226;2023-02-17T13:33:02;99936.00;;;13.89;46.86
22653;BME280;11493;43.344;26.226;2023-02-17T13:35:32;99938.28;;;13.95;47.40
22653;BME280;11493;43.344;26.226;2023-02-17T13:38:00;99940.72;;;13.88;48.24
22653;BME280;11493;43.344;26.226;2023-02-17T13:40:39;99932.09;;;13.98;48.18
22653;BME280;11493;43.344;26.226;2023-02-17T13:43:13;99935.84;;;13.94;48.45
22653;BME280;11493;43.344;26.226;2023-02-17T13:46:11;99933.06;;;13.94;48.53
22653;BME280;11493;43.344;26.226;2023-02-17T13:48:41;99927.50;;;13.76;48.22
22653;BME280;11493;43.344;26.226;2023-02-17T13:51:24;99922.81;;;13.86;47.71
22653;BME280;11493;43.344;26.226;2023-02-17T13:53:52;99935.19;;;13.97;48.28
22653;BME280;11493;43.344;26.226;2023-02-17T13:56:29;99922.31;;;13.84;48.83
22653;BME280;11493;43.344;26.226;2023-02-17T13:59:13;99924.09;;;13.88;49.42
22653;BME280;11493;43.344;26.226;2023-02-17T14:01:44;99920.06;;;14.03;48.85
22653;BME280;11493;43.344;26.226;2023-02-17T14:04:20;99933.06;;;13.94;48.71
22653;BME280;11493;43.344;26.226;2023-02-17T14:06:48;99937.09;;;13.79;48.74
22653;BME280;11493;43.344;26.226;2023-02-17T14:09:27;99933.38;;;13.84;48.62
22653;BME280;11493;43.344;26.226;2023-02-17T14:11:57;99942.47;;;13.75;47.99
22653;BME280;11493;43.344;26.226;2023-02-17T14:14:33;99898.44;;;13.48;48.60
22653;BME280;11493;43.344;26.226;2023-02-17T14:19:45;99921.25;;;13.62;48.94
22653;BME280;11493;43.344;26.226;2023-02-17T14:22:33;99938.06;;;13.74;46.40
22653;BME280;11493;43.344;26.226;2023-02-17T14:25:11;99917.34;;;13.55;47.66
22653;BME280;11493;43.344;26.226;2023-02-17T14:27:43;99926.72;;;13.36;49.31